sensor_id;sensor_type;location;lat;lon;timestamp;temperature;humidity
54960;DHT22;40860;51.710;8.736;2023-10-31T00:02:50;13.10;99.90
54960;DHT22;40860;51.710;8.736;2023-10-31T00:06:56;13.10;99.90
54960;DHT22;40860;51.710;8.736;2023-10-31T00:11:01;13.10;99.90
54960;DHT22;40860;51.710;8.736;2023-10-31T00:15:04;13.20;99.90
54960;DHT22;40860;51.710;8.736;2023-10-31T00:19:07;13.10;99.90
54960;DHT22;40860;51.710;8.736;2023-10-31T00:23:10;13.20;99.90
54960;DHT22;40860;51.710;8.736;2023-10-31T00:27:14;13.20;99.90
54960;DHT22;40860;51.710;8.736;2023-10-31T00:31:17;13.20;99.90
54960;DHT22;40860;51.710;8.736;2023-10-31T00:35:20;13.20;99.90
54960;DHT22;40860;51.710;8.736;2023-10-31T00:39:25;13.20;99.90
54960;DHT22;40860;51.710;8.736;2023-10-31T00:43:29;13.20;99.90
54960;DHT22;40860;51.710;8.736;2023-10-31T00:47:32;13.20;99.90
54960;DHT22;40860;51.710;8.736;2023-10-31T00:51:35;13.20;99.90
54960;DHT22;40860;51.710;8.736;2023-10-31T00:55:38;13.30;99.90
54960;DHT22;40860;51.710;8.736;2023-10-31T00:59:43;13.30;99.90
54960;DHT22;40860;51.710;8.736;2023-10-31T01:03:46;13.20;99.90
54960;DHT22;40860;51.710;8.736;2023-10-31T01:07:49;13.20;99.90
54960;DHT22;40860;51.710;8.736;2023-10-31T01:11:53;13.10;99.90
54960;DHT22;40860;51.710;8.736;2023-10-31T01:15:58;13.10;99.90
54960;DHT22;40860;51.710;8.736;2023-10-31T01:20:00;13.10;99.90
54960;DHT22;40860;51.710;8.736;2023-10-31T01:24:04;13.10;99.90
54960;DHT22;40860;51.710;8.736;2023-10-31T01:28:07;13.10;99.90
54960;DHT22;40860;51.710;8.736;2023-10-31T01:32:11;13.20;99.90
54960;DHT22;40860;51.710;8.736;2023-10-31T01:36:24;13.20;99.90
54960;DHT22;40860;51.710;8.736;2023-10-31T01:40:27;13.10;99.90
54960;DHT22;40860;51.710;8.736;2023-10-31T01:44:30;13.10;99.90
54960;DHT22;40860;51.710;8.736;2023-10-31T01:48:35;13.00;99.90
54960;DHT22;40860;51.710;8.736;2023-10-31T01:52:38;12.90;99.90
54960;DHT22;40860;51.710;8.736;2023-10-31T01:56:41;12.70;99.90
54960;DHT22;40860;51.710;8.736;2023-10-31T02:00:48;12.60;99.90
54960;DHT22;40860;51.710;8.736;2023-10-31T02:04:53;12.50;99.90
54960;DHT22;40860;51.710;8.736;2023-10-31T02:08:57;12.40;99.90
54960;DHT22;40860;51.710;8.736;2023-10-31T02:13:10;12.30;99.90
54960;DHT22;40860;51.710;8.736;2023-10-31T02:17:13;12.20;99.90
54960;DHT22;40860;51.710;8.736;2023-10-31T02:21:19;12.10;99.90
54960;DHT22;40860;51.710;8.736;2023-10-31T02:25:24;12.00;99.90
54960;DHT22;40860;51.710;8.736;2023-10-31T02:29:27;12.00;99.90
54960;DHT22;40860;51.710;8.736;2023-10-31T02:33:30;12.00;99.90
54960;DHT22;40860;51.710;8.736;2023-10-31T02:37:33;11.90;99.90
54960;DHT22;40860;51.710;8.736;2023-10-31T02:41:37;11.90;99.90
54960;DHT22;40860;51.710;8.736;2023-10-31T02:45:40;11.90;99.90
54960;DHT22;40860;51.710;8.736;2023-10-31T02:49:43;11.80;99.90
54960;DHT22;40860;51.710;8.736;2023-10-31T02:53:46;11.80;99.90
54960;DHT22;40860;51.710;8.736;2023-10-31T02:57:50;11.80;99.90
54960;DHT22;40860;51.710;8.736;2023-10-31T03:01:53;11.70;99.90
54960;DHT22;40860;51.710;8.736;2023-10-31T03:05:56;11.70;99.90
54960;DHT22;40860;51.710;8.736;2023-10-31T03:09:59;11.60;99.90
54960;DHT22;40860;51.710;8.736;2023-10-31T03:14:04;11.50;99.90
54960;DHT22;40860;51.710;8.736;2023-10-31T03:18:07;11.50;99.90
54960;DHT22;40860;51.710;8.736;2023-10-31T03:22:10;11.40;99.90
54960;DHT22;40860;51.710;8.736;2023-10-31T03:26:13;11.30;99.90
54960;DHT22;40860;51.710;8.736;2023-10-31T03:30:17;11.30;99.90
54960;DHT22;40860;51.710;8.736;2023-10-31T03:34:20;11.20;99.90
54960;DHT22;40860;51.710;8.736;2023-10-31T03:38:23;11.20;99.90
54960;DHT22;40860;51.710;8.736;2023-10-31T03:42:26;11.20;99.90
54960;DHT22;40860;51.710;8.736;2023-10-31T03:46:31;11.20;99.90
54960;DHT22;40860;51.710;8.736;2023-10-31T03:50:34;11.20;99.90
54960;DHT22;40860;51.710;8.736;2023-10-31T03:54:37;11.20;99.90
54960;DHT22;40860;51.710;8.736;2023-10-31T03:58:42;11.10;99.90
54960;DHT22;40860;51.710;8.736;2023-10-31T04:02:47;11.10;99.90
54960;DHT22;40860;51.710;8.736;2023-10-31T04:06:50;11.10;99.90
54960;DHT22;40860;51.710;8.736;2023-10-31T04:10:53;11.10;99.90
54960;DHT22;40860;51.710;8.736;2023-10-31T04:14:55;11.00;99.90
54960;DHT22;40860;51.710;8.736;2023-10-31T04:19:00;11.00;99.90
54960;DHT22;40860;51.710;8.736;2023-10-31T04:23:03;10.90;99.90
54960;DHT22;40860;51.710;8.736;2023-10-31T04:27:07;10.90;99.90
54960;DHT22;40860;51.710;8.736;2023-10-31T04:31:10;10.90;99.90
54960;DHT22;40860;51.710;8.736;2023-10-31T04:35:14;10.90;99.90
54960;DHT22;40860;51.710;8.736;2023-10-31T04:39:17;10.90;99.90
54960;DHT22;40860;51.710;8.736;2023-10-31T04:43:20;10.90;99.90
54960;DHT22;40860;51.710;8.736;2023-10-31T04:47:23;10.80;99.90
54960;DHT22;40860;51.710;8.736;2023-10-31T04:51:33;10.80;99.90
54960;DHT22;40860;51.710;8.736;2023-10-31T04:55:36;10.70;99.90
54960;DHT22;40860;51.710;8.736;2023-10-31T04:59:38;10.60;99.90
54960;DHT22;40860;51.710;8.736;2023-10-31T05:03:41;10.60;99.90
54960;DHT22;40860;51.710;8.736;2023-10-31T05:07:46;10.60;99.90
54960;DHT22;40860;51.710;8.736;2023-10-31T05:11:49;10.60;99.90
54960;DHT22;40860;51.710;8.736;2023-10-31T05:15:52;10.60;99.90
54960;DHT22;40860;51.710;8.736;2023-10-31T05:19:55;10.60;99.90
54960;DHT22;40860;51.710;8.736;2023-10-31T05:23:59;10.60;99.90
54960;DHT22;40860;51.710;8.736;2023-10-31T05:28:02;10.60;99.90
54960;DHT22;40860;51.710;8.736;2023-10-31T05:32:05;10.60;99.90
54960;DHT22;40860;51.710;8.736;2023-10-31T05:36:17;10.60;99.90
54960;DHT22;40860;51.710;8.736;2023-10-31T05:40:22;10.60;99.90
54960;DHT22;40860;51.710;8.736;2023-10-31T05:44:26;10.60;99.90
54960;DHT22;40860;51.710;8.736;2023-10-31T05:48:30;10.60;99.90
54960;DHT22;40860;51.710;8.736;2023-10-31T05:52:33;10.60;99.90
54960;DHT22;40860;51.710;8.736;2023-10-31T05:56:37;10.60;99.90
54960;DHT22;40860;51.710;8.736;2023-10-31T06:00:40;10.60;99.90
54960;DHT22;40860;51.710;8.736;2023-10-31T06:04:43;10.70;99.90
54960;DHT22;40860;51.710;8.736;2023-10-31T06:08:46;10.60;99.90
54960;DHT22;40860;51.710;8.736;2023-10-31T06:12:50;10.60;99.90
54960;DHT22;40860;51.710;8.736;2023-10-31T06:16:53;10.60;99.90
54960;DHT22;40860;51.710;8.736;2023-10-31T06:20:58;10.60;99.90
54960;DHT22;40860;51.710;8.736;2023-10-31T06:25:01;10.60;99.90
54960;DHT22;40860;51.710;8.736;2023-10-31T06:29:05;10.60;99.90
54960;DHT22;40860;51.710;8.736;2023-10-31T06:33:28;10.50;99.90
54960;DHT22;40860;51.710;8.736;2023-10-31T06:37:31;10.50;99.90
54960;DHT22;40860;51.710;8.736;2023-10-31T06:41:34;10.40;99.90
54960;DHT22;40860;51.710;8.736;2023-10-31T06:45:38;10.40;99.90
54960;DHT22;40860;51.710;8.736;2023-10-31T06:49:41;10.40;99.90
54960;DHT22;40860;51.710;8.736;2023-10-31T06:53:44;10.40;99.90
54960;DHT22;40860;51.710;8.736;2023-10-31T06:57:47;10.40;99.90
54960;DHT22;40860;51.710;8.736;2023-10-31T07:01:52;10.40;99.90
54960;DHT22;40860;51.710;8.736;2023-10-31T07:05:55;10.40;99.90
54960;DHT22;40860;51.710;8.736;2023-10-31T07:09:58;10.40;99.90
54960;DHT22;40860;51.710;8.736;2023-10-31T07:14:01;10.40;99.90
54960;DHT22;40860;51.710;8.736;2023-10-31T07:18:06;10.40;99.90
54960;DHT22;40860;51.710;8.736;2023-10-31T07:22:10;10.50;99.90
54960;DHT22;40860;51.710;8.736;2023-10-31T07:26:12;10.50;99.90
54960;DHT22;40860;51.710;8.736;2023-10-31T07:30:15;10.50;99.90
54960;DHT22;40860;51.710;8.736;2023-10-31T07:34:20;10.50;99.90
54960;DHT22;40860;51.710;8.736;2023-10-31T07:38:23;10.50;99.90
54960;DHT22;40860;51.710;8.736;2023-10-31T07:42:25;10.50;99.90
54960;DHT22;40860;51.710;8.736;2023-10-31T07:46:28;10.50;99.90
54960;DHT22;40860;51.710;8.736;2023-10-31T07:50:33;10.50;99.90
54960;DHT22;40860;51.710;8.736;2023-10-31T07:54:39;10.40;99.90
54960;DHT22;40860;51.710;8.736;2023-10-31T07:58:41;10.40;99.90
54960;DHT22;40860;51.710;8.736;2023-10-31T08:02:44;10.40;99.90
54960;DHT22;40860;51.710;8.736;2023-10-31T08:06:49;10.30;99.90
54960;DHT22;40860;51.710;8.736;2023-10-31T08:10:52;10.40;99.90
54960;DHT22;40860;51.710;8.736;2023-10-31T08:14:55;10.40;99.90
54960;DHT22;40860;51.710;8.736;2023-10-31T08:18:57;10.40;99.90
54960;DHT22;40860;51.710;8.736;2023-10-31T08:23:02;10.30;99.90
54960;DHT22;40860;51.710;8.736;2023-10-31T08:27:05;10.40;99.90
54960;DHT22;40860;51.710;8.736;2023-10-31T08:31:09;10.40;99.90
54960;DHT22;40860;51.710;8.736;2023-10-31T08:35:12;10.50;99.90
54960;DHT22;40860;51.710;8.736;2023-10-31T08:39:16;10.50;99.90
54960;DHT22;40860;51.710;8.736;2023-10-31T08:43:19;10.60;99.90
54960;DHT22;40860;51.710;8.736;2023-10-31T08:47:22;10.60;99.90
54960;DHT22;40860;51.710;8.736;2023-10-31T08:51:25;10.70;99.90
54960;DHT22;40860;51.710;8.736;2023-10-31T08:55:29;10.70;99.90
54960;DHT22;40860;51.710;8.736;2023-10-31T08:59:32;10.80;99.90
54960;DHT22;40860;51.710;8.736;2023-10-31T09:03:35;10.90;99.90
54960;DHT22;40860;51.710;8.736;2023-10-31T09:07:38;10.90;99.90
54960;DHT22;40860;51.710;8.736;2023-10-31T09:11:42;10.90;99.90
54960;DHT22;40860;51.710;8.736;2023-10-31T09:15:45;11.00;99.90
54960;DHT22;40860;51.710;8.736;2023-10-31T09:19:49;11.00;99.90
54960;DHT22;40860;51.710;8.736;2023-10-31T09:23:52;11.10;99.90
54960;DHT22;40860;51.710;8.736;2023-10-31T09:27:57;11.00;99.90
54960;DHT22;40860;51.710;8.736;2023-10-31T09:32:00;11.00;99.90
54960;DHT22;40860;51.710;8.736;2023-10-31T09:36:04;11.10;99.90
54960;DHT22;40860;51.710;8.736;2023-10-31T09:40:08;11.20;99.90
54960;DHT22;40860;51.710;8.736;2023-10-31T09:44:13;11.20;99.90
54960;DHT22;40860;51.710;8.736;2023-10-31T09:48:16;11.20;99.90
54960;DHT22;40860;51.710;8.736;2023-10-31T09:52:20;11.10;99.90
54960;DHT22;40860;51.710;8.736;2023-10-31T09:56:23;11.10;99.90
54960;DHT22;40860;51.710;8.736;2023-10-31T10:00:28;11.10;99.90
54960;DHT22;40860;51.710;8.736;2023-10-31T10:04:31;11.20;99.90
54960;DHT22;40860;51.710;8.736;2023-10-31T10:08:37;11.20;99.90
54960;DHT22;40860;51.710;8.736;2023-10-31T10:12:42;11.20;99.90
54960;DHT22;40860;51.710;8.736;2023-10-31T10:16:46;11.30;99.90
54960;DHT22;40860;51.710;8.736;2023-10-31T10:20:55;11.30;99.90
54960;DHT22;40860;51.710;8.736;2023-10-31T10:24:58;11.40;99.90
54960;DHT22;40860;51.710;8.736;2023-10-31T10:29:01;11.50;99.90
54960;DHT22;40860;51.710;8.736;2023-10-31T10:33:05;11.50;99.90
54960;DHT22;40860;51.710;8.736;2023-10-31T10:37:08;11.60;99.90
54960;DHT22;40860;51.710;8.736;2023-10-31T10:41:13;11.60;99.90
54960;DHT22;40860;51.710;8.736;2023-10-31T10:45:17;11.60;99.90
54960;DHT22;40860;51.710;8.736;2023-10-31T10:49:25;11.70;99.90
54960;DHT22;40860;51.710;8.736;2023-10-31T10:53:30;11.70;99.90
54960;DHT22;40860;51.710;8.736;2023-10-31T10:57:38;11.70;99.90
54960;DHT22;40860;51.710;8.736;2023-10-31T11:01:42;11.70;99.90
54960;DHT22;40860;51.710;8.736;2023-10-31T11:05:50;11.80;99.90
54960;DHT22;40860;51.710;8.736;2023-10-31T11:09:54;11.80;99.90
54960;DHT22;40860;51.710;8.736;2023-10-31T11:13:58;11.90;99.90
54960;DHT22;40860;51.710;8.736;2023-10-31T11:18:04;11.80;99.90
54960;DHT22;40860;51.710;8.736;2023-10-31T11:22:10;12.00;99.90
54960;DHT22;40860;51.710;8.736;2023-10-31T11:26:13;12.20;99.90
54960;DHT22;40860;51.710;8.736;2023-10-31T11:30:27;12.30;99.90
54960;DHT22;40860;51.710;8.736;2023-10-31T11:34:30;12.30;99.90
54960;DHT22;40860;51.710;8.736;2023-10-31T11:38:37;12.30;99.90
54960;DHT22;40860;51.710;8.736;2023-10-31T11:42:41;12.40;99.90
54960;DHT22;40860;51.710;8.736;2023-10-31T11:46:44;12.50;99.90
54960;DHT22;40860;51.710;8.736;2023-10-31T11:50:51;12.60;99.90
54960;DHT22;40860;51.710;8.736;2023-10-31T11:54:59;12.70;99.90
54960;DHT22;40860;51.710;8.736;2023-10-31T11:59:04;12.60;99.90
54960;DHT22;40860;51.710;8.736;2023-10-31T12:03:08;12.60;99.90
54960;DHT22;40860;51.710;8.736;2023-10-31T12:07:11;12.50;99.90
54960;DHT22;40860;51.710;8.736;2023-10-31T12:11:17;12.40;99.90
54960;DHT22;40860;51.710;8.736;2023-10-31T12:15:22;12.40;99.90
54960;DHT22;40860;51.710;8.736;2023-10-31T12:19:25;12.30;99.90
54960;DHT22;40860;51.710;8.736;2023-10-31T12:23:29;12.30;99.90
54960;DHT22;40860;51.710;8.736;2023-10-31T12:27:47;12.40;99.90
54960;DHT22;40860;51.710;8.736;2023-10-31T12:31:52;12.40;99.90
54960;DHT22;40860;51.710;8.736;2023-10-31T12:35:59;12.30;99.90
54960;DHT22;40860;51.710;8.736;2023-10-31T12:40:04;12.30;99.90
54960;DHT22;40860;51.710;8.736;2023-10-31T12:44:08;12.30;99.90
54960;DHT22;40860;51.710;8.736;2023-10-31T12:48:12;12.40;99.90
54960;DHT22;40860;51.710;8.736;2023-10-31T12:52:15;12.40;99.90
54960;DHT22;40860;51.710;8.736;2023-10-31T12:56:38;12.40;99.90
54960;DHT22;40860;51.710;8.736;2023-10-31T13:00:42;12.40;99.90
54960;DHT22;40860;51.710;8.736;2023-10-31T13:04:47;12.40;99.90
54960;DHT22;40860;51.710;8.736;2023-10-31T13:08:51;12.40;99.90
54960;DHT22;40860;51.710;8.736;2023-10-31T13:12:54;12.40;99.90
54960;DHT22;40860;51.710;8.736;2023-10-31T13:16:58;12.40;99.90
54960;DHT22;40860;51.710;8.736;2023-10-31T13:21:02;12.40;99.90
54960;DHT22;40860;51.710;8.736;2023-10-31T13:25:08;12.40;99.90
54960;DHT22;40860;51.710;8.736;2023-10-31T13:29:12;12.30;99.90
54960;DHT22;40860;51.710;8.736;2023-10-31T13:33:16;12.30;99.90
54960;DHT22;40860;51.710;8.736;2023-10-31T13:37:19;12.30;99.90
54960;DHT22;40860;51.710;8.736;2023-10-31T13:41:22;12.40;99.90
54960;DHT22;40860;51.710;8.736;2023-10-31T13:45:25;12.60;99.90
54960;DHT22;40860;51.710;8.736;2023-10-31T13:49:29;12.70;99.90
54960;DHT22;40860;51.710;8.736;2023-10-31T13:53:32;12.90;99.90
54960;DHT22;40860;51.710;8.736;2023-10-31T13:57:35;13.00;99.90
54960;DHT22;40860;51.710;8.736;2023-10-31T14:01:38;13.00;99.90
54960;DHT22;40860;51.710;8.736;2023-10-31T14:05:42;13.00;99.90
54960;DHT22;40860;51.710;8.736;2023-10-31T14:09:45;13.00;99.90
54960;DHT22;40860;51.710;8.736;2023-10-31T14:13:50;12.90;99.90
54960;DHT22;40860;51.710;8.736;2023-10-31T14:17:53;12.90;99.90
54960;DHT22;40860;51.710;8.736;2023-10-31T14:21:57;12.90;99.90
54960;DHT22;40860;51.710;8.736;2023-10-31T14:26:00;12.90;99.90
54960;DHT22;40860;51.710;8.736;2023-10-31T14:30:05;12.80;99.90
54960;DHT22;40860;51.710;8.736;2023-10-31T14:34:08;12.80;99.90
54960;DHT22;40860;51.710;8.736;2023-10-31T14:38:15;12.80;99.90
54960;DHT22;40860;51.710;8.736;2023-10-31T14:42:18;12.70;99.90
54960;DHT22;40860;51.710;8.736;2023-10-31T14:46:22;12.70;99.90
54960;DHT22;40860;51.710;8.736;2023-10-31T14:50:25;12.70;99.90
54960;DHT22;40860;51.710;8.736;2023-10-31T14:54:29;12.80;99.90
54960;DHT22;40860;51.710;8.736;2023-10-31T14:58:33;12.90;99.90
54960;DHT22;40860;51.710;8.736;2023-10-31T15:02:36;12.90;99.90
54960;DHT22;40860;51.710;8.736;2023-10-31T15:06:39;12.90;99.90
54960;DHT22;40860;51.710;8.736;2023-10-31T15:10:43;12.90;99.90
54960;DHT22;40860;51.710;8.736;2023-10-31T15:14:46;12.80;99.90
54960;DHT22;40860;51.710;8.736;2023-10-31T15:18:49;12.70;99.90
54960;DHT22;40860;51.710;8.736;2023-10-31T15:22:52;12.70;99.90
54960;DHT22;40860;51.710;8.736;2023-10-31T15:26:56;12.60;99.90
54960;DHT22;40860;51.710;8.736;2023-10-31T15:31:00;12.50;99.90
54960;DHT22;40860;51.710;8.736;2023-10-31T15:35:06;12.40;99.90
54960;DHT22;40860;51.710;8.736;2023-10-31T15:39:10;12.40;99.90
54960;DHT22;40860;51.710;8.736;2023-10-31T15:43:15;12.30;99.90
54960;DHT22;40860;51.710;8.736;2023-10-31T15:47:18;12.30;99.90
54960;DHT22;40860;51.710;8.736;2023-10-31T15:51:27;12.20;99.90
54960;DHT22;40860;51.710;8.736;2023-10-31T15:55:34;12.10;99.90
54960;DHT22;40860;51.710;8.736;2023-10-31T15:59:39;12.00;99.90
54960;DHT22;40860;51.710;8.736;2023-10-31T16:03:47;11.90;99.90
54960;DHT22;40860;51.710;8.736;2023-10-31T16:07:52;11.80;99.90
54960;DHT22;40860;51.710;8.736;2023-10-31T16:11:55;11.70;99.90
54960;DHT22;40860;51.710;8.736;2023-10-31T16:16:00;11.60;99.90
54960;DHT22;40860;51.710;8.736;2023-10-31T16:20:05;11.50;99.90
54960;DHT22;40860;51.710;8.736;2023-10-31T16:24:08;11.40;99.90
54960;DHT22;40860;51.710;8.736;2023-10-31T16:28:12;11.30;99.90
54960;DHT22;40860;51.710;8.736;2023-10-31T16:32:16;11.20;99.90
54960;DHT22;40860;51.710;8.736;2023-10-31T16:36:21;11.10;99.90
54960;DHT22;40860;51.710;8.736;2023-10-31T16:40:24;11.00;99.90
54960;DHT22;40860;51.710;8.736;2023-10-31T16:44:28;10.90;99.90
54960;DHT22;40860;51.710;8.736;2023-10-31T16:48:33;10.80;99.90
54960;DHT22;40860;51.710;8.736;2023-10-31T16:52:36;10.70;99.90
54960;DHT22;40860;51.710;8.736;2023-10-31T16:56:39;10.70;99.90
54960;DHT22;40860;51.710;8.736;2023-10-31T17:00:45;10.60;99.90
54960;DHT22;40860;51.710;8.736;2023-10-31T17:04:54;10.60;99.90
54960;DHT22;40860;51.710;8.736;2023-10-31T17:08:58;10.50;99.90
54960;DHT22;40860;51.710;8.736;2023-10-31T17:13:02;10.50;99.90
54960;DHT22;40860;51.710;8.736;2023-10-31T17:17:05;10.50;99.90
54960;DHT22;40860;51.710;8.736;2023-10-31T17:21:09;10.40;99.90
54960;DHT22;40860;51.710;8.736;2023-10-31T17:25:12;10.40;99.90
54960;DHT22;40860;51.710;8.736;2023-10-31T17:29:15;10.30;99.90
54960;DHT22;40860;51.710;8.736;2023-10-31T17:33:18;10.30;99.90
54960;DHT22;40860;51.710;8.736;2023-10-31T17:37:23;10.20;99.90
54960;DHT22;40860;51.710;8.736;2023-10-31T17:41:26;10.20;99.90
54960;DHT22;40860;51.710;8.736;2023-10-31T17:45:29;10.20;99.90
54960;DHT22;40860;51.710;8.736;2023-10-31T17:49:34;10.20;99.90
54960;DHT22;40860;51.710;8.736;2023-10-31T17:53:38;10.20;99.90
54960;DHT22;40860;51.710;8.736;2023-10-31T17:57:41;10.20;99.90
54960;DHT22;40860;51.710;8.736;2023-10-31T18:01:44;10.10;99.90
54960;DHT22;40860;51.710;8.736;2023-10-31T18:05:52;10.10;99.90
54960;DHT22;40860;51.710;8.736;2023-10-31T18:09:56;10.10;99.90
54960;DHT22;40860;51.710;8.736;2023-10-31T18:13:59;10.10;99.90
54960;DHT22;40860;51.710;8.736;2023-10-31T18:18:02;10.10;99.90
54960;DHT22;40860;51.710;8.736;2023-10-31T18:22:05;10.10;99.90
54960;DHT22;40860;51.710;8.736;2023-10-31T18:26:10;10.10;99.90
54960;DHT22;40860;51.710;8.736;2023-10-31T18:30:13;10.10;99.90
54960;DHT22;40860;51.710;8.736;2023-10-31T18:34:16;10.10;99.90
54960;DHT22;40860;51.710;8.736;2023-10-31T18:38:19;10.10;99.90
54960;DHT22;40860;51.710;8.736;2023-10-31T18:42:24;10.10;99.90
54960;DHT22;40860;51.710;8.736;2023-10-31T18:46:27;10.20;99.90
54960;DHT22;40860;51.710;8.736;2023-10-31T18:50:30;10.20;99.90
54960;DHT22;40860;51.710;8.736;2023-10-31T18:54:34;10.30;99.90
54960;DHT22;40860;51.710;8.736;2023-10-31T18:58:38;10.40;99.90
54960;DHT22;40860;51.710;8.736;2023-10-31T19:02:44;10.40;99.90
54960;DHT22;40860;51.710;8.736;2023-10-31T19:06:47;10.40;99.90
54960;DHT22;40860;51.710;8.736;2023-10-31T19:10:51;10.40;99.90
54960;DHT22;40860;51.710;8.736;2023-10-31T19:14:56;10.40;99.90
54960;DHT22;40860;51.710;8.736;2023-10-31T19:19:03;10.30;99.90
54960;DHT22;40860;51.710;8.736;2023-10-31T19:23:06;10.30;99.90
54960;DHT22;40860;51.710;8.736;2023-10-31T19:27:09;10.30;99.90
54960;DHT22;40860;51.710;8.736;2023-10-31T19:31:13;10.40;99.90
54960;DHT22;40860;51.710;8.736;2023-10-31T19:35:16;10.40;99.90
54960;DHT22;40860;51.710;8.736;2023-10-31T19:39:20;10.30;99.90
54960;DHT22;40860;51.710;8.736;2023-10-31T19:43:27;10.30;99.90
54960;DHT22;40860;51.710;8.736;2023-10-31T19:47:36;10.40;99.90
54960;DHT22;40860;51.710;8.736;2023-10-31T19:51:40;10.40;99.90
54960;DHT22;40860;51.710;8.736;2023-10-31T19:55:43;10.40;99.90
54960;DHT22;40860;51.710;8.736;2023-10-31T19:59:46;10.40;99.90
54960;DHT22;40860;51.710;8.736;2023-10-31T20:03:51;10.40;99.90
54960;DHT22;40860;51.710;8.736;2023-10-31T20:07:55;10.40;99.90
54960;DHT22;40860;51.710;8.736;2023-10-31T20:11:58;10.40;99.90
54960;DHT22;40860;51.710;8.736;2023-10-31T20:16:02;10.40;99.90
54960;DHT22;40860;51.710;8.736;2023-10-31T20:20:09;10.40;99.90
54960;DHT22;40860;51.710;8.736;2023-10-31T20:24:13;10.40;99.90
54960;DHT22;40860;51.710;8.736;2023-10-31T20:28:16;10.40;99.90
54960;DHT22;40860;51.710;8.736;2023-10-31T20:32:19;10.50;99.90
54960;DHT22;40860;51.710;8.736;2023-10-31T20:36:23;10.40;99.90
54960;DHT22;40860;51.710;8.736;2023-10-31T20:40:27;10.40;99.90
54960;DHT22;40860;51.710;8.736;2023-10-31T20:44:32;10.40;99.90
54960;DHT22;40860;51.710;8.736;2023-10-31T20:48:35;10.50;99.90
54960;DHT22;40860;51.710;8.736;2023-10-31T20:52:40;10.40;99.90
54960;DHT22;40860;51.710;8.736;2023-10-31T20:56:43;10.50;99.90
54960;DHT22;40860;51.710;8.736;2023-10-31T21:00:46;10.50;99.90
54960;DHT22;40860;51.710;8.736;2023-10-31T21:04:49;10.40;99.90
54960;DHT22;40860;51.710;8.736;2023-10-31T21:08:54;10.50;99.90
54960;DHT22;40860;51.710;8.736;2023-10-31T21:12:57;10.40;99.90
54960;DHT22;40860;51.710;8.736;2023-10-31T21:17:00;10.40;99.90
54960;DHT22;40860;51.710;8.736;2023-10-31T21:21:04;10.40;99.90
54960;DHT22;40860;51.710;8.736;2023-10-31T21:25:09;10.50;99.90
54960;DHT22;40860;51.710;8.736;2023-10-31T21:29:12;10.40;99.90
54960;DHT22;40860;51.710;8.736;2023-10-31T21:33:16;10.50;99.90
54960;DHT22;40860;51.710;8.736;2023-10-31T21:37:19;10.50;99.90
54960;DHT22;40860;51.710;8.736;2023-10-31T21:41:23;10.60;99.90
54960;DHT22;40860;51.710;8.736;2023-10-31T21:45:26;10.60;99.90
54960;DHT22;40860;51.710;8.736;2023-10-31T21:49:29;10.60;99.90
54960;DHT22;40860;51.710;8.736;2023-10-31T21:53:32;10.60;99.90
54960;DHT22;40860;51.710;8.736;2023-10-31T21:57:36;10.60;99.90
54960;DHT22;40860;51.710;8.736;2023-10-31T22:01:39;10.60;99.90
54960;DHT22;40860;51.710;8.736;2023-10-31T22:05:42;10.60;99.90
54960;DHT22;40860;51.710;8.736;2023-10-31T22:09:45;10.70;99.90
54960;DHT22;40860;51.710;8.736;2023-10-31T22:13:50;10.70;99.90
54960;DHT22;40860;51.710;8.736;2023-10-31T22:17:53;10.70;99.90
54960;DHT22;40860;51.710;8.736;2023-10-31T22:21:56;10.70;99.90
54960;DHT22;40860;51.710;8.736;2023-10-31T22:25:59;10.70;99.90
54960;DHT22;40860;51.710;8.736;2023-10-31T22:30:04;10.70;99.90
54960;DHT22;40860;51.710;8.736;2023-10-31T22:34:09;10.70;99.90
54960;DHT22;40860;51.710;8.736;2023-10-31T22:38:12;10.70;99.90
54960;DHT22;40860;51.710;8.736;2023-10-31T22:42:15;10.70;99.90
54960;DHT22;40860;51.710;8.736;2023-10-31T22:46:19;10.70;99.90
54960;DHT22;40860;51.710;8.736;2023-10-31T22:50:22;10.70;99.90
54960;DHT22;40860;51.710;8.736;2023-10-31T22:54:26;10.70;99.90
54960;DHT22;40860;51.710;8.736;2023-10-31T22:58:29;10.70;99.90
54960;DHT22;40860;51.710;8.736;2023-10-31T23:02:33;10.70;99.90
54960;DHT22;40860;51.710;8.736;2023-10-31T23:06:37;10.70;99.90
54960;DHT22;40860;51.710;8.736;2023-10-31T23:10:40;10.80;99.90
54960;DHT22;40860;51.710;8.736;2023-10-31T23:14:43;10.80;99.90
54960;DHT22;40860;51.710;8.736;2023-10-31T23:18:47;10.80;99.90
54960;DHT22;40860;51.710;8.736;2023-10-31T23:22:50;10.80;99.90
54960;DHT22;40860;51.710;8.736;2023-10-31T23:26:54;10.80;99.90
54960;DHT22;40860;51.710;8.736;2023-10-31T23:30:57;10.80;99.90
54960;DHT22;40860;51.710;8.736;2023-10-31T23:35:02;10.80;99.90
54960;DHT22;40860;51.710;8.736;2023-10-31T23:39:05;10.80;99.90
54960;DHT22;40860;51.710;8.736;2023-10-31T23:43:08;10.80;99.90
54960;DHT22;40860;51.710;8.736;2023-10-31T23:47:11;10.80;99.90
54960;DHT22;40860;51.710;8.736;2023-10-31T23:51:19;10.80;99.90
54960;DHT22;40860;51.710;8.736;2023-10-31T23:55:25;10.80;99.90
54960;DHT22;40860;51.710;8.736;2023-10-31T23:59:28;10.80;99.90
